createdAt,value
2018-09-01T00:00:02.033Z,85.71
2018-09-01T00:01:02.029Z,85.71
2018-09-01T00:02:02.025Z,85.99
2018-09-01T00:03:02.018Z,85.61
2018-09-01T00:04:02.009Z,85.89
2018-09-01T00:05:02.011Z,86.08
2018-09-01T00:06:01.997Z,85.89
2018-09-01T00:07:01.740Z,85.89
2018-09-01T00:08:01.734Z,85.51
2018-09-01T00:09:01.985Z,85.51
2018-09-01T00:10:01.982Z,85.51
2018-09-01T00:11:02.008Z,85.8
2018-09-01T00:12:01.963Z,85.8
2018-09-01T00:13:01.959Z,86.28
2018-09-01T00:14:01.957Z,86.37
2018-09-01T00:15:01.691Z,85.89
2018-09-01T00:16:01.938Z,86.08
2018-09-01T00:17:01.931Z,85.99
2018-09-01T00:18:01.925Z,86.18
2018-09-01T00:19:01.919Z,85.8
2018-09-01T00:20:01.912Z,86.08
2018-09-01T00:21:01.655Z,85.99
2018-09-01T00:22:01.899Z,86.14
2018-09-01T00:23:01.893Z,86.04
2018-09-01T00:24:01.887Z,86.23
2018-09-01T00:25:01.888Z,86.43
2018-09-01T00:26:01.875Z,86.9
2018-09-01T00:27:01.872Z,86.61
2018-09-01T00:28:01.862Z,86.8
2018-09-01T00:29:01.611Z,86.71
2018-09-01T00:30:01.851Z,87.19
2018-09-01T00:31:01.844Z,87.38
2018-09-01T00:32:01.840Z,87.09
2018-09-01T00:33:01.830Z,87.29
2018-09-01T00:34:01.834Z,87.76
2018-09-01T00:35:01.822Z,87.29
2018-09-01T00:36:01.814Z,87.29
2018-09-01T00:37:01.811Z,87.57
2018-09-01T00:38:01.800Z,87.09
2018-09-01T00:39:01.794Z,87.38
2018-09-01T00:40:01.786Z,87.48
2018-09-01T00:41:01.787Z,87.66
2018-09-01T00:42:01.775Z,87.95
2018-09-01T00:43:01.769Z,87.95
2018-09-01T00:44:01.762Z,87.86
2018-09-01T00:45:01.755Z,87.57
2018-09-01T00:46:01.751Z,87.86
2018-09-01T00:47:01.750Z,87.86
2018-09-01T00:48:01.737Z,87.66
2018-09-01T00:49:01.732Z,87.76
2018-09-01T00:50:01.737Z,87.66
2018-09-01T00:51:01.719Z,87.66
2018-09-01T00:52:01.712Z,87.38
2018-09-01T00:53:01.707Z,87.48
2018-09-01T00:54:01.702Z,88.05
2018-09-01T00:55:01.446Z,87.66
2018-09-01T00:56:01.685Z,87.86
2018-09-01T00:57:01.680Z,87.66
2018-09-01T00:58:01.672Z,87.86
2018-09-01T00:59:01.668Z,87.86
2018-09-01T01:00:01.664Z,87.57
2018-09-01T01:01:01.656Z,87.57
2018-09-01T01:02:01.899Z,87.48
2018-09-01T01:03:01.390Z,87.86
2018-09-01T01:04:01.636Z,87.66
2018-09-01T01:05:01.643Z,87.76
2018-09-01T01:06:01.629Z,87.29
2018-09-01T01:07:01.621Z,87.66
2018-09-01T01:08:01.608Z,87.48
2018-09-01T01:09:01.602Z,87.66
2018-09-01T01:10:01.598Z,87.19
2018-09-01T01:11:01.594Z,87.09
2018-09-01T01:12:01.589Z,87.29
2018-09-01T01:13:01.583Z,87.29
2018-09-01T01:14:01.574Z,87.29
2018-09-01T01:15:01.569Z,87.09
2018-09-01T01:16:01.560Z,87.09
2018-09-01T01:17:01.301Z,87.29
2018-09-01T01:18:01.545Z,87.19
2018-09-01T01:19:01.539Z,87.19
2018-09-01T01:20:01.534Z,87.29
2018-09-01T01:21:01.527Z,87.76
2018-09-01T01:22:01.275Z,87
2018-09-01T01:23:01.522Z,87
2018-09-01T01:24:01.507Z,87
2018-09-01T01:25:01.505Z,87.09
2018-09-01T01:26:01.496Z,87.09
2018-09-01T01:27:01.491Z,87
2018-09-01T01:28:01.482Z,87
2018-09-01T01:29:01.476Z,87.29
2018-09-01T01:30:01.471Z,87.09
2018-09-01T01:31:01.463Z,87
2018-09-01T01:32:01.457Z,87.09
2018-09-01T01:33:01.703Z,87.57
2018-09-01T01:34:01.445Z,87.57
2018-09-01T01:35:01.189Z,87.48
2018-09-01T01:36:01.180Z,87.62
2018-09-01T01:37:01.425Z,87.62
2018-09-01T01:38:01.418Z,87.62
2018-09-01T01:39:01.411Z,87.91
2018-09-01T01:40:01.405Z,87.82
2018-09-01T01:41:01.399Z,88.58
2018-09-01T01:42:01.392Z,88.2
2018-09-01T01:43:01.387Z,88.1
2018-09-01T01:44:01.385Z,88.1
2018-09-01T01:45:01.377Z,88.68
2018-09-01T01:46:01.367Z,88.54
2018-09-01T01:47:01.360Z,88.54
2018-09-01T01:48:01.360Z,88.82
2018-09-01T01:49:01.347Z,88.73
2018-09-01T01:50:01.340Z,89.11
2018-09-01T01:51:01.333Z,88.92
2018-09-01T01:52:01.328Z,88.92
2018-09-01T01:53:01.068Z,89.11
2018-09-01T01:54:01.312Z,89.11
2018-09-01T01:55:01.307Z,89.87
2018-09-01T01:56:01.310Z,89.59
2018-09-01T01:57:01.291Z,89.49
2018-09-01T01:58:01.286Z,89.35
2018-09-01T01:59:01.280Z,89.64
2018-09-01T02:00:01.272Z,89.83
2018-09-01T02:01:01.266Z,90.02
2018-09-01T02:02:01.256Z,90.21
2018-09-01T02:03:01.263Z,90.21
2018-09-01T02:04:01.243Z,89.83
2018-09-01T02:05:01.242Z,90.59
2018-09-01T02:06:01.232Z,90.69
2018-09-01T02:07:01.227Z,90.31
2018-09-01T02:08:01.214Z,90.11
2018-09-01T02:09:01.207Z,90.31
2018-09-01T02:10:01.201Z,90.5
2018-09-01T02:11:01.195Z,90.5
2018-09-01T02:12:01.186Z,91.16
2018-09-01T02:13:01.178Z,90.88
2018-09-01T02:14:01.179Z,90.73
2018-09-01T02:15:01.170Z,90.88
2018-09-01T02:16:01.157Z,90.83
2018-09-01T02:17:01.155Z,90.88
2018-09-01T02:18:01.143Z,90.64
2018-09-01T02:19:01.134Z,90.83
2018-09-01T02:20:00.882Z,91.21
2018-09-01T02:21:01.121Z,91.5
2018-09-01T02:22:01.117Z,91.5
2018-09-01T02:23:01.106Z,91.21
2018-09-01T02:24:01.101Z,91.78
2018-09-01T02:25:01.091Z,91.12
2018-09-01T02:26:01.091Z,91.41
2018-09-01T02:27:01.077Z,91.31
2018-09-01T02:28:01.072Z,91.6
2018-09-01T02:29:01.072Z,91.41
2018-09-01T02:30:01.073Z,91.21
2018-09-01T02:31:01.047Z,91.5
2018-09-01T02:32:01.042Z,91.5
2018-09-01T02:33:01.035Z,91.41
2018-09-01T02:34:01.024Z,91.31
2018-09-01T02:35:01.019Z,91.78
2018-09-01T02:36:00.758Z,91.69
2018-09-01T02:37:01.001Z,91.78
2018-09-01T02:38:01.030Z,91.78
2018-09-01T02:39:00.986Z,92.07
2018-09-01T02:40:00.979Z,91.6
2018-09-01T02:41:00.971Z,91.5
2018-09-01T02:42:00.967Z,92.12
2018-09-01T02:43:00.956Z,91.46
2018-09-01T02:44:00.950Z,91.83
2018-09-01T02:45:00.941Z,92.03
2018-09-01T02:46:00.681Z,92.22
2018-09-01T02:47:00.924Z,92.12
2018-09-01T02:48:00.924Z,92.03
2018-09-01T02:49:00.908Z,92.5
2018-09-01T02:50:00.664Z,92.22
2018-09-01T02:51:00.896Z,92.12
2018-09-01T02:52:00.888Z,92.03
2018-09-01T02:53:00.883Z,92.32
2018-09-01T02:54:00.871Z,92.5
2018-09-01T02:55:00.862Z,92.88
2018-09-01T02:56:00.858Z,92.69
2018-09-01T02:57:00.847Z,92.5
2018-09-01T02:58:00.843Z,92.5
2018-09-01T02:59:00.833Z,92.6
2018-09-01T03:00:00.821Z,92.98
2018-09-01T03:01:00.821Z,92.88
2018-09-01T03:02:00.817Z,92.98
2018-09-01T03:03:00.800Z,92.79
2018-09-01T03:04:00.792Z,92.6
2018-09-01T03:05:00.787Z,92.98
2018-09-01T03:06:00.776Z,92.79
2018-09-01T03:07:00.772Z,92.79
2018-09-01T03:08:00.508Z,93.46
2018-09-01T03:09:00.755Z,92.5
2018-09-01T03:10:00.747Z,92.79
2018-09-01T03:11:00.739Z,92.6
2018-09-01T03:12:00.732Z,92.5
2018-09-01T03:13:00.721Z,92.46
2018-09-01T03:14:00.713Z,92.98
2018-09-01T03:15:00.712Z,92.55
2018-09-01T03:16:00.702Z,93.12
2018-09-01T03:17:00.688Z,93.12
2018-09-01T03:18:00.686Z,92.84
2018-09-01T03:19:00.672Z,92.65
2018-09-01T03:20:00.667Z,93.27
2018-09-01T03:21:00.657Z,93.41
2018-09-01T03:22:00.648Z,93.32
2018-09-01T03:23:00.640Z,93.51
2018-09-01T03:24:00.633Z,93.03
2018-09-01T03:25:00.625Z,93.32
2018-09-01T03:26:00.614Z,92.93
2018-09-01T03:27:00.609Z,93.12
2018-09-01T03:28:00.600Z,93.12
2018-09-01T03:29:00.592Z,93.22
2018-09-01T03:30:00.583Z,93.41
2018-09-01T03:31:00.576Z,93.12
2018-09-01T03:32:00.573Z,93.51
2018-09-01T03:33:00.558Z,93.32
2018-09-01T03:34:00.555Z,93.32
2018-09-01T03:35:00.291Z,93.32
2018-09-01T03:36:00.534Z,93.51
2018-09-01T03:37:00.527Z,93.51
2018-09-01T03:38:00.517Z,93.32
2018-09-01T03:39:00.512Z,93.41
2018-09-01T03:40:00.515Z,93.51
2018-09-01T03:41:00.495Z,93.6
2018-09-01T03:42:00.489Z,93.32
2018-09-01T03:43:00.476Z,93.41
2018-09-01T03:44:00.469Z,93.32
2018-09-01T03:45:00.461Z,93.41
2018-09-01T03:46:00.453Z,93.79
2018-09-01T03:47:00.442Z,93.79
2018-09-01T03:48:00.184Z,93.79
2018-09-01T03:49:00.430Z,93.88
2018-09-01T03:50:00.421Z,93.7
2018-09-01T03:51:00.414Z,93.79
2018-09-01T03:52:00.405Z,93.88
2018-09-01T03:53:00.147Z,93.79
2018-09-01T03:54:00.386Z,93.7
2018-09-01T03:55:00.380Z,93.88
2018-09-01T03:56:00.119Z,93.98
2018-09-01T03:57:00.361Z,93.7
2018-09-01T03:58:00.354Z,94.08
2018-09-01T03:59:00.343Z,93.88
2018-09-01T04:00:00.336Z,93.88
2018-09-01T04:01:00.351Z,94.08
2018-09-01T04:02:00.320Z,94.08
2018-09-01T04:03:00.315Z,93.98
2018-09-01T04:04:00.304Z,94.13
2018-09-01T04:05:00.300Z,94.13
2018-09-01T04:06:00.286Z,93.84
2018-09-01T04:07:00.277Z,93.74
2018-09-01T04:08:00.272Z,93.7
2018-09-01T04:09:00.517Z,93.65
2018-09-01T04:10:00.253Z,93.65
2018-09-01T04:11:00.245Z,93.84
2018-09-01T04:12:00.235Z,94.03
2018-09-01T04:12:59.976Z,94.03
2018-09-01T04:14:00.218Z,93.55
2018-09-01T04:15:00.223Z,94.03
2018-09-01T04:16:00.201Z,94.03
2018-09-01T04:17:00.195Z,93.84
2018-09-01T04:18:00.185Z,94.22
2018-09-01T04:19:00.175Z,94.22
2018-09-01T04:20:00.171Z,94.13
2018-09-01T04:21:00.159Z,94.22
2018-09-01T04:22:00.154Z,94.32
2018-09-01T04:23:00.141Z,94.13
2018-09-01T04:24:00.141Z,94.51
2018-09-01T04:25:00.136Z,94.13
2018-09-01T04:26:00.132Z,94.37
2018-09-01T04:27:00.109Z,94.03
2018-09-01T04:28:00.105Z,94.13
2018-09-01T04:29:00.093Z,94.03
2018-09-01T04:30:00.085Z,94.03
2018-09-01T04:31:00.095Z,94.03
2018-09-01T04:32:00.166Z,94.03
2018-09-01T04:33:00.059Z,93.93
2018-09-01T04:34:00.049Z,94.41
2018-09-01T04:35:00.049Z,94.37
2018-09-01T04:36:00.033Z,93.88
2018-09-01T04:37:00.031Z,94.08
2018-09-01T04:38:00.031Z,94.08
2018-09-01T04:39:00.011Z,94.27
2018-09-01T04:39:59.998Z,94.37
2018-09-01T04:40:59.996Z,94.17
2018-09-01T04:41:59.981Z,94.08
2018-09-01T04:42:59.975Z,94.37
2018-09-01T04:43:59.967Z,94.08
2018-09-01T04:44:59.958Z,93.6
2018-09-01T04:45:59.950Z,93.93
2018-09-01T04:47:00.020Z,94.12
2018-09-01T04:47:59.935Z,93.84
2018-09-01T04:48:59.926Z,93.74
2018-09-01T04:49:59.919Z,94.12
2018-09-01T04:50:59.659Z,94.03
2018-09-01T04:51:59.901Z,93.36
2018-09-01T04:52:59.895Z,93.6
2018-09-01T04:53:59.888Z,93.41
2018-09-01T04:54:59.899Z,93.31
2018-09-01T04:55:59.874Z,93.26
2018-09-01T04:56:59.876Z,93.36
2018-09-01T04:57:59.860Z,92.97
2018-09-01T04:58:59.852Z,92.97
2018-09-01T04:59:59.846Z,92.69
2018-09-01T05:01:00.178Z,92.36
2018-09-01T05:01:59.579Z,92.36
2018-09-01T05:02:59.831Z,92.45
2018-09-01T05:03:59.825Z,92.21
2018-09-01T05:04:59.814Z,91.64
2018-09-01T05:05:59.806Z,91.25
2018-09-01T05:06:59.799Z,91.78
2018-09-01T05:07:59.797Z,90.82
2018-09-01T05:08:59.787Z,90.25
2018-09-01T05:09:59.785Z,90.06
2018-09-01T05:10:59.776Z,90.1
2018-09-01T05:11:59.771Z,89.24
2018-09-01T05:12:59.762Z,89.34
2018-09-01T05:13:59.508Z,89.43
2018-09-01T05:14:59.756Z,89.09
2018-09-01T05:15:59.745Z,88.33
2018-09-01T05:16:59.747Z,88.23
2018-09-01T05:17:59.742Z,87.85
2018-09-01T05:18:59.731Z,87.9
2018-09-01T05:19:59.728Z,87.32
2018-09-01T05:20:59.471Z,86.88
2018-09-01T05:21:59.465Z,86.5
2018-09-01T05:22:59.711Z,86.21
2018-09-01T05:23:59.946Z,86.45
2018-09-01T05:24:59.704Z,85.88
2018-09-01T05:25:59.701Z,85.44
2018-09-01T05:26:59.694Z,84.58
2018-09-01T05:27:59.693Z,84
2018-09-01T05:28:59.686Z,83.37
2018-09-01T05:29:59.684Z,83.47
2018-09-01T05:30:59.680Z,83.37
2018-09-01T05:31:59.680Z,82.26
2018-09-01T05:32:59.673Z,82.35
2018-09-01T05:33:59.675Z,81.53
2018-09-01T05:34:59.669Z,81.24
2018-09-01T05:35:59.665Z,80.66
2018-09-01T05:36:59.666Z,79.94
2018-09-01T05:37:59.668Z,79.55
2018-09-01T05:38:59.656Z,78.83
2018-09-01T05:39:59.652Z,78.44
2018-09-01T05:40:59.652Z,77.23
2018-09-01T05:41:59.654Z,76.65
2018-09-01T05:42:59.654Z,76.4
2018-09-01T05:43:59.645Z,75.44
2018-09-01T05:44:59.644Z,74.51
2018-09-01T05:45:59.641Z,73.16
2018-09-01T05:46:59.642Z,72.43
2018-09-01T05:47:59.639Z,71.76
2018-09-01T05:48:59.637Z,71.12
2018-09-01T05:49:59.640Z,70.54
2018-09-01T05:50:59.642Z,69.42
2018-09-01T05:51:59.636Z,67.88
2018-09-01T05:52:59.640Z,67.43
2018-09-01T05:53:59.639Z,66.69
2018-09-01T05:54:59.383Z,66.2
2018-09-01T05:55:59.641Z,65.17
2018-09-01T05:56:59.385Z,64.5
2018-09-01T05:57:59.638Z,63.37
2018-09-01T05:58:59.645Z,62.98
2018-09-01T05:59:59.643Z,61.86
2018-09-01T06:00:59.650Z,60.99
2018-09-01T06:01:59.641Z,60.05
2018-09-01T06:02:59.649Z,59.21
2018-09-01T06:03:59.647Z,58.44
2018-09-01T06:04:59.650Z,57.4
2018-09-01T06:05:59.810Z,56.52
2018-09-01T06:06:59.404Z,55.68
2018-09-01T06:07:59.655Z,55
2018-09-01T06:08:59.658Z,54.62
2018-09-01T06:09:59.660Z,54.45
2018-09-01T06:10:59.666Z,53.39
2018-09-01T06:11:59.668Z,52.93
2018-09-01T06:12:59.421Z,52.73
2018-09-01T06:13:59.727Z,52.08
2018-09-01T06:14:59.681Z,51.53
2018-09-01T06:15:59.688Z,50.84
2018-09-01T06:16:59.688Z,50.09
2018-09-01T06:17:59.950Z,49.99
2018-09-01T06:18:59.698Z,49.15
2018-09-01T06:19:59.452Z,48.18
2018-09-01T06:20:59.710Z,48.2
2018-09-01T06:21:59.462Z,47.81
2018-09-01T06:22:59.720Z,47.15
2018-09-01T06:23:59.581Z,46.18
2018-09-01T06:24:59.532Z,45.72
2018-09-01T06:25:59.738Z,45.14
2018-09-01T06:26:59.743Z,44.94
2018-09-01T06:27:59.749Z,44.65
2018-09-01T06:28:59.756Z,44.45
2018-09-01T06:29:59.527Z,44.09
2018-09-01T06:30:59.518Z,43.71
2018-09-01T06:31:59.783Z,43.01
2018-09-01T06:33:00.026Z,43.04
2018-09-01T06:33:59.792Z,42.06
2018-09-01T06:34:59.801Z,41.96
2018-09-01T06:35:59.804Z,41.96
2018-09-01T06:36:59.818Z,42.06
2018-09-01T06:37:59.858Z,41.6
2018-09-01T06:38:59.831Z,41.5
2018-09-01T06:39:59.834Z,41.42
2018-09-01T06:40:59.844Z,41.52
2018-09-01T06:41:59.854Z,41.52
2018-09-01T06:42:59.679Z,41.22
2018-09-01T06:43:59.866Z,40.47
2018-09-01T06:45:00.125Z,40.86
2018-09-01T06:45:59.882Z,40.47
2018-09-01T06:46:59.640Z,40.39
2018-09-01T06:47:59.656Z,39.7
2018-09-01T06:48:59.908Z,39.22
2018-09-01T06:49:59.916Z,38.94
2018-09-01T06:50:59.923Z,38.84
2018-09-01T06:51:59.933Z,38.75
2018-09-01T06:52:59.941Z,39.02
2018-09-01T06:53:59.699Z,39.31
2018-09-01T06:54:59.963Z,38.92
2018-09-01T06:55:59.969Z,38.92
2018-09-01T06:56:59.978Z,39.12
2018-09-01T06:57:59.986Z,39.29
2018-09-01T06:58:59.996Z,39.78
2018-09-01T07:00:00.004Z,39.49
2018-09-01T07:00:59.761Z,40.08
2018-09-01T07:02:00.023Z,40.39
2018-09-01T07:03:00.032Z,40.19
2018-09-01T07:03:59.787Z,40
2018-09-01T07:04:59.797Z,39.9
2018-09-01T07:06:00.060Z,39.23
2018-09-01T07:07:00.073Z,39.16
2018-09-01T07:08:00.083Z,38.98
2018-09-01T07:09:00.088Z,38.4
2018-09-01T07:09:59.848Z,38.02
2018-09-01T07:11:00.105Z,37.85
2018-09-01T07:12:00.121Z,37.26
2018-09-01T07:13:00.125Z,37.57
2018-09-01T07:14:00.135Z,37.27
2018-09-01T07:15:00.146Z,36.8
2018-09-01T07:16:00.405Z,36.61
2018-09-01T07:17:00.166Z,36.63
2018-09-01T07:18:00.178Z,36.24
2018-09-01T07:19:00.188Z,36.24
2018-09-01T07:20:00.197Z,35.65
2018-09-01T07:20:59.954Z,35.08
2018-09-01T07:22:00.219Z,34.98
2018-09-01T07:23:00.226Z,34.98
2018-09-01T07:24:00.240Z,35.47
2018-09-01T07:25:00.000Z,34.98
2018-09-01T07:26:00.255Z,34.88
2018-09-01T07:27:00.266Z,34.8
2018-09-01T07:28:00.279Z,34.49
2018-09-01T07:29:00.035Z,34.78
2018-09-01T07:30:00.389Z,34.59
2018-09-01T07:31:00.459Z,34.49
2018-09-01T07:32:00.068Z,34.77
2018-09-01T07:33:00.328Z,34.86
2018-09-01T07:34:00.339Z,34.86
2018-09-01T07:35:00.349Z,35.16
2018-09-01T07:36:00.414Z,35.06
2018-09-01T07:37:00.372Z,35.45
2018-09-01T07:38:00.382Z,35.45
2018-09-01T07:39:00.390Z,35.16
2018-09-01T07:40:00.152Z,35.73
2018-09-01T07:41:00.158Z,36.41
2018-09-01T07:42:00.170Z,36.51
2018-09-01T07:43:00.433Z,36.22
2018-09-01T07:44:00.444Z,36.3
2018-09-01T07:45:00.466Z,36.59
2018-09-01T07:46:00.461Z,37.06
2018-09-01T07:47:00.729Z,37.55
2018-09-01T07:48:00.481Z,37.45
2018-09-01T07:49:00.492Z,37.63
2018-09-01T07:50:00.634Z,37.14
2018-09-01T07:51:00.515Z,37.62
2018-09-01T07:52:00.522Z,37.21
2018-09-01T07:53:00.532Z,37.77
2018-09-01T07:54:00.542Z,38.26
2018-09-01T07:55:00.552Z,38.55
2018-09-01T07:56:00.361Z,39.04
2018-09-01T07:57:00.571Z,38.75
2018-09-01T07:58:00.583Z,39.04
2018-09-01T07:59:00.590Z,39.04
2018-09-01T08:00:00.601Z,39.04
2018-09-01T08:01:00.361Z,38.55
2018-09-01T08:02:00.619Z,38.35
2018-09-01T08:03:00.632Z,38.43
2018-09-01T08:04:00.638Z,39.59
2018-09-01T08:05:00.655Z,40.25
2018-09-01T08:06:00.658Z,40.72
2018-09-01T08:07:00.668Z,40.72
2018-09-01T08:08:00.697Z,40.6
2018-09-01T08:09:00.688Z,41.19
2018-09-01T08:10:00.695Z,41.16
2018-09-01T08:11:00.705Z,41.83
2018-09-01T08:12:00.715Z,42.31
2018-09-01T08:13:00.723Z,42.8
2018-09-01T08:14:01.265Z,43.07
2018-09-01T08:15:00.743Z,43.55
2018-09-01T08:16:00.754Z,43.36
2018-09-01T08:17:00.762Z,43.36
2018-09-01T08:18:01.018Z,44.02
2018-09-01T08:19:00.792Z,44.21
2018-09-01T08:20:00.788Z,44.87
2018-09-01T08:21:00.796Z,45.26
2018-09-01T08:22:00.804Z,45.62
2018-09-01T08:23:00.815Z,45.7
2018-09-01T08:24:00.822Z,45.51
2018-09-01T08:25:00.830Z,45.8
2018-09-01T08:26:00.872Z,46.07
2018-09-01T08:27:00.857Z,47.13
2018-09-01T08:28:00.854Z,46.94
2018-09-01T08:29:00.860Z,47.69
2018-09-01T08:30:00.867Z,48.08
2018-09-01T08:31:00.623Z,47.98
2018-09-01T08:32:00.880Z,48.08
2018-09-01T08:33:00.889Z,48.27
2018-09-01T08:34:00.981Z,48.93
2018-09-01T08:35:00.897Z,49.39
2018-09-01T08:36:00.901Z,49.77
2018-09-01T08:37:00.906Z,50.14
2018-09-01T08:38:00.658Z,50.14
2018-09-01T08:39:00.915Z,50.62
2018-09-01T08:40:00.917Z,50.98
2018-09-01T08:41:00.922Z,51.37
2018-09-01T08:42:00.929Z,51.73
2018-09-01T08:43:00.932Z,51.93
2018-09-01T08:44:00.937Z,52.02
2018-09-01T08:45:00.935Z,52.31
2018-09-01T08:46:00.937Z,52.51
2018-09-01T08:47:00.938Z,51.83
2018-09-01T08:48:00.946Z,52.41
2018-09-01T08:49:01.200Z,52.29
2018-09-01T08:50:00.945Z,52.87
2018-09-01T08:51:00.948Z,53.61
2018-09-01T08:52:00.953Z,54.19
2018-09-01T08:53:00.950Z,53.81
2018-09-01T08:54:00.951Z,54.58
2018-09-01T08:55:00.952Z,54.97
2018-09-01T08:56:00.953Z,55.74
2018-09-01T08:57:00.957Z,53.71
2018-09-01T08:58:00.953Z,52.45
2018-09-01T08:59:00.954Z,52.75
2018-09-01T09:00:00.956Z,54.49
2018-09-01T09:03:00.956Z,54.07
2018-09-01T09:04:00.957Z,54.36
2018-09-01T09:05:00.963Z,52.04
2018-09-01T09:06:00.959Z,51.56
2018-09-01T09:07:00.961Z,51.17
2018-09-01T09:08:00.964Z,50.47
2018-09-01T09:09:00.960Z,51.53
2018-09-01T09:10:00.707Z,52.01
2018-09-01T09:11:00.965Z,51.82
2018-09-01T09:12:00.708Z,50.47
2018-09-01T09:13:00.959Z,51.44
2018-09-01T09:14:00.958Z,51.53
2018-09-01T09:28:01.216Z,49.9
2018-09-01T09:29:00.710Z,49.41
2018-09-01T09:30:00.961Z,48.64
2018-09-01T09:31:00.961Z,47.55
2018-09-01T09:32:00.970Z,47.94
2018-09-01T09:33:02.642Z,48.49
2018-09-01T09:34:00.963Z,48.49
2018-09-01T09:35:00.963Z,48.59
2018-09-01T09:36:00.963Z,50.04
2018-09-01T09:37:00.963Z,51.39
2018-09-01T09:38:00.962Z,51.95
2018-09-01T09:39:00.963Z,51.95
2018-09-01T09:40:00.966Z,51.95
2018-09-01T09:41:00.963Z,52.04
2018-09-01T09:42:01.219Z,51.85
2018-09-01T09:43:00.713Z,50.91
2018-09-01T09:44:00.969Z,50.62
2018-09-01T09:45:00.964Z,50.52
2018-09-01T09:46:01.004Z,50.71
2018-09-01T09:47:00.968Z,51.2
2018-09-01T09:48:00.964Z,51.39
2018-09-01T09:49:00.972Z,51.2
2018-09-01T09:50:07.231Z,50.55
2018-09-01T09:51:00.965Z,50.65
2018-09-01T09:52:00.964Z,50.93
2018-09-01T10:09:01.223Z,49.37
2018-09-01T10:10:00.970Z,49.55
2018-09-01T10:11:01.002Z,49.37
2018-09-01T10:12:00.971Z,49.27
2018-09-01T10:13:00.718Z,49.17
2018-09-01T10:14:00.968Z,49.27
2018-09-01T10:15:00.974Z,49.37
2018-09-01T10:16:01.427Z,49.27
2018-09-01T10:17:00.968Z,47.05
2018-09-01T10:18:13.709Z,46.06
2018-09-01T10:19:00.969Z,46.15
2018-09-01T10:20:00.756Z,45.96
2018-09-01T10:21:00.721Z,46.64
2018-09-01T10:22:00.973Z,47.41
2018-09-01T10:23:00.974Z,47.6
2018-09-01T10:24:00.970Z,47.99
2018-09-01T10:25:00.969Z,48.47
2018-09-01T10:26:00.967Z,49.15
2018-09-01T10:27:01.159Z,49.05
2018-09-01T10:28:00.716Z,48.95
2018-09-01T10:29:00.971Z,48.3
2018-09-01T10:30:00.969Z,48.01
2018-09-01T10:31:00.974Z,46.66
2018-09-01T10:32:00.979Z,46.27
2018-09-01T10:33:00.968Z,46.1
2018-09-01T10:34:00.722Z,46.3
2018-09-01T10:35:00.717Z,46.2
2018-09-01T10:36:00.967Z,46.49
2018-09-01T10:37:00.968Z,46.3
2018-09-01T10:38:00.972Z,46.1
2018-09-01T10:39:00.969Z,45.91
2018-09-01T10:40:01.217Z,45.42
2018-09-01T10:41:00.970Z,45.52
2018-09-01T10:42:00.968Z,45.45
2018-09-01T10:43:00.975Z,45.74
2018-09-01T10:44:00.719Z,44.67
2018-09-01T11:48:01.012Z,44.43
2018-09-01T11:49:01.013Z,43.65
2018-09-01T11:50:01.063Z,44.02
2018-09-01T11:51:01.015Z,44.21
2018-09-01T12:03:01.034Z,43.89
2018-09-01T12:04:01.195Z,43.7
2018-09-01T12:05:01.033Z,42.75
2018-09-01T12:06:01.034Z,42.75
2018-09-01T12:27:01.332Z,38.73
2018-09-01T12:28:01.085Z,38.64
2018-09-01T12:29:10.044Z,37.88
2018-09-01T12:30:01.096Z,38.37
2018-09-01T12:31:01.096Z,38.44
2018-09-01T12:32:01.099Z,38.54
2018-09-01T12:33:01.096Z,38.93
2018-09-01T12:34:01.100Z,39.01
2018-09-01T12:35:01.105Z,38.81
2018-09-01T12:36:01.105Z,39.9
2018-09-01T12:37:01.107Z,39.51
2018-09-01T12:38:01.112Z,39.41
2018-09-01T12:39:01.117Z,39.7
2018-09-01T12:40:00.866Z,39.8
2018-09-01T12:41:00.870Z,39.9
2018-09-01T12:42:01.235Z,39.41
2018-09-01T12:43:01.127Z,39.32
2018-09-01T12:44:01.127Z,39.51
2018-09-01T12:45:01.134Z,39.8
2018-09-01T12:46:01.136Z,40
2018-09-01T12:47:01.137Z,40.39
2018-09-01T12:48:01.139Z,39.9
2018-09-01T12:49:01.146Z,40.39
2018-09-01T12:50:01.146Z,40.58
2018-09-01T12:51:01.147Z,40.48
2018-09-01T12:53:01.228Z,39.51
2018-09-01T12:54:00.906Z,39.51
2018-09-01T12:55:00.909Z,39.61
2018-09-01T12:56:01.165Z,39.51
2018-09-01T12:57:00.916Z,39.7
2018-09-01T12:58:01.421Z,39.03
2018-09-01T12:59:01.173Z,39.41
2018-09-01T13:00:01.177Z,39.9
2018-09-01T13:01:01.177Z,39.51
2018-09-01T13:02:01.184Z,39.51
2018-09-01T13:03:01.186Z,40.09
2018-09-01T13:04:01.187Z,39.88
2018-09-01T13:05:01.188Z,39.69
2018-09-01T13:06:01.192Z,40.08
2018-09-01T13:07:01.204Z,40.36
2018-09-01T13:08:01.314Z,40.34
2018-09-01T13:09:01.200Z,40.56
2018-09-01T13:10:01.201Z,40.44
2018-09-01T13:11:00.954Z,40.46
2018-09-01T13:12:01.210Z,40.36
2018-09-01T13:13:01.215Z,40.56
2018-09-01T13:14:00.964Z,40.17
2018-09-01T13:15:01.222Z,40.19
2018-09-01T13:16:01.222Z,40.58
2018-09-01T13:17:01.227Z,40.09
2018-09-01T13:18:01.237Z,39.12
2018-09-01T13:19:01.228Z,39.51
2018-09-01T13:20:01.233Z,39.43
2018-09-01T13:21:01.234Z,39.43
2018-09-01T13:22:03.731Z,39.24
2018-09-01T13:24:01.243Z,39.14
2018-09-01T13:25:01.248Z,39.14
2018-09-01T13:26:01.250Z,39.04
2018-09-01T13:27:01.250Z,38.65
2018-09-01T13:28:01.255Z,39.04
2018-09-01T13:29:01.506Z,39.43
2018-09-01T13:30:01.010Z,39.04
2018-09-01T13:31:01.009Z,38.75
2018-09-01T13:32:01.266Z,38.65
2018-09-01T13:33:01.266Z,38.95
2018-09-01T13:34:01.271Z,38.73
2018-09-01T13:35:01.272Z,39.03
2018-09-01T13:38:01.279Z,40.09
2018-09-01T13:39:01.451Z,40.09
2018-09-01T13:51:01.317Z,39.49
2018-09-01T13:52:01.318Z,40.08
2018-09-01T13:53:01.318Z,40.08
2018-09-01T13:54:01.323Z,39.98
2018-09-01T13:55:01.324Z,39.98
2018-09-01T13:56:01.325Z,40.15
2018-09-01T13:57:01.327Z,40.54
2018-09-01T13:58:01.330Z,40.64
2018-09-01T13:59:01.333Z,40.15
2018-09-01T14:00:01.331Z,40.05
2018-09-01T14:01:01.336Z,40.05
2018-09-01T14:02:01.338Z,40.08
2018-09-01T14:03:01.340Z,39.47
2018-09-01T14:04:01.353Z,40.05
2018-09-01T14:05:01.344Z,40.15
2018-09-01T14:06:01.352Z,40.54
2018-09-01T14:07:01.349Z,40.44
2018-09-01T14:08:01.350Z,40.44
2018-09-01T14:09:01.101Z,40.54
2018-09-01T14:10:01.355Z,40.52
2018-09-01T14:11:01.363Z,40.42
2018-09-01T14:12:01.358Z,40.33
2018-09-01T14:13:01.110Z,40.44
2018-09-01T14:15:01.370Z,40.13
2018-09-01T14:16:07.635Z,41.1
2018-09-01T14:17:01.367Z,40.91
2018-09-01T14:18:01.372Z,41
2018-09-01T14:19:01.376Z,40.91
2018-09-01T14:20:01.121Z,41
2018-09-01T14:21:01.435Z,40.91
2018-09-01T14:22:01.124Z,41.2
2018-09-01T14:23:01.379Z,41.3
2018-09-01T14:24:01.380Z,40.91
2018-09-01T14:26:01.382Z,41.1
2018-09-01T14:27:01.383Z,41.3
2018-09-01T14:28:01.394Z,41.49
2018-09-01T14:29:01.387Z,42.05
2018-09-01T14:30:01.387Z,42.14
2018-09-01T14:31:01.639Z,41.95
2018-09-01T14:32:01.390Z,41.95
2018-09-01T14:33:01.599Z,41.56
2018-09-01T14:35:01.403Z,41.3
2018-09-01T14:36:06.665Z,41.56
2018-09-01T14:37:01.423Z,41.27
2018-09-01T14:38:01.146Z,41.27
2018-09-01T14:39:01.401Z,41.27
2018-09-01T14:40:01.149Z,41.56
2018-09-01T14:41:01.401Z,41.83
2018-09-01T14:42:01.411Z,42.13
2018-09-01T14:43:01.404Z,42.22
2018-09-01T14:44:01.406Z,42.61
2018-09-01T14:45:01.409Z,42.61
2018-09-01T14:46:01.415Z,43.07
2018-09-01T14:47:01.632Z,42.88
2018-09-01T14:48:01.409Z,42.9
2018-09-01T14:49:01.410Z,42.51
2018-09-01T14:50:01.419Z,42.71
2018-09-01T14:51:01.411Z,42.32
2018-09-01T14:52:01.413Z,42.22
2018-09-01T14:53:01.417Z,41.93
2018-09-01T14:54:01.417Z,42.13
2018-09-01T14:55:01.415Z,42.13
2018-09-01T14:56:01.417Z,42.22
2018-09-01T14:57:01.417Z,42.8
2018-09-01T14:58:01.421Z,43.09
2018-09-01T14:59:01.418Z,42.88
2018-09-01T15:00:01.425Z,43.27
2018-09-01T15:01:01.422Z,43.85
2018-09-01T15:02:01.421Z,43.55
2018-09-01T15:07:01.431Z,43.55
2018-09-01T15:08:01.176Z,43.58
2018-09-01T15:09:01.428Z,43.48
2018-09-01T15:10:01.177Z,43.19
2018-09-01T15:11:01.430Z,42.51
2018-09-01T15:12:01.435Z,42.51
2018-09-01T15:13:01.430Z,42.78
2018-09-01T15:14:01.435Z,43.37
2018-09-01T15:15:01.431Z,43.27
2018-09-01T15:16:01.432Z,43.85
2018-09-01T15:17:01.432Z,44.04
2018-09-01T15:18:01.434Z,43.85
2018-09-01T15:19:01.184Z,43.95
2018-09-01T15:20:01.435Z,44.13
2018-09-01T15:21:01.435Z,44.13
2018-09-01T15:22:01.185Z,44.31
2018-09-01T15:23:01.185Z,44.31